createdAt,value
2023-05-10T00:00:16.545Z,21.37
2023-05-10T00:00:48.362Z,21.38
2023-05-10T00:01:19.650Z,21.42
2023-05-10T00:01:51.021Z,21.40
2023-05-10T00:02:22.421Z,21.38
2023-05-10T00:02:53.867Z,21.43
2023-05-10T00:03:25.394Z,21.44
2023-05-10T00:03:56.873Z,21.43
2023-05-10T00:04:28.294Z,21.37
2023-05-10T00:04:59.692Z,21.38
2023-05-10T00:05:31.274Z,21.36
2023-05-10T00:06:02.678Z,21.39
2023-05-10T00:06:34.094Z,21.42
2023-05-10T00:07:05.456Z,21.39
2023-05-10T00:07:36.809Z,21.38
2023-05-10T00:08:08.122Z,21.38
2023-05-10T00:08:39.424Z,21.41
2023-05-10T00:09:10.790Z,21.37
2023-05-10T00:09:42.098Z,21.41
2023-05-10T00:10:13.583Z,21.42
2023-05-10T00:10:45.100Z,21.43
2023-05-10T00:11:16.437Z,21.39
2023-05-10T00:11:47.816Z,21.37
2023-05-10T00:12:19.181Z,21.37
2023-05-10T00:12:50.567Z,21.37
2023-05-10T00:13:22.015Z,21.35
2023-05-10T00:13:53.382Z,21.35
2023-05-10T00:14:24.717Z,21.35
2023-05-10T00:14:56.032Z,21.33
2023-05-10T00:15:27.426Z,21.33
2023-05-10T00:15:58.773Z,21.32
2023-05-10T00:16:30.102Z,21.35
2023-05-10T00:17:01.545Z,21.37
2023-05-10T00:17:32.995Z,21.37
2023-05-10T00:18:04.366Z,21.37
2023-05-10T00:18:35.740Z,21.40
2023-05-10T00:19:07.118Z,21.37
2023-05-10T00:19:38.450Z,21.34
2023-05-10T00:20:10.233Z,21.35
2023-05-10T00:20:41.639Z,21.39
2023-05-10T00:21:13.083Z,21.37
2023-05-10T00:21:44.493Z,21.35
2023-05-10T00:22:15.821Z,21.33
2023-05-10T00:22:47.204Z,21.34
2023-05-10T00:23:18.542Z,21.32
2023-05-10T00:23:49.966Z,21.31
2023-05-10T00:24:21.487Z,21.28
2023-05-10T00:24:52.883Z,21.29
2023-05-10T00:25:24.221Z,21.30
2023-05-10T00:25:55.560Z,21.33
2023-05-10T00:26:26.938Z,21.34
2023-05-10T00:26:58.258Z,21.32
2023-05-10T00:27:29.637Z,21.33
2023-05-10T00:28:00.998Z,21.32
2023-05-10T00:28:32.321Z,21.35
2023-05-10T00:29:03.652Z,21.34
2023-05-10T00:29:34.988Z,21.34
2023-05-10T00:30:06.595Z,21.31
2023-05-10T00:30:38.078Z,21.32
2023-05-10T00:31:09.415Z,21.33
2023-05-10T00:31:40.821Z,21.34
2023-05-10T00:32:12.330Z,21.36
2023-05-10T00:32:43.693Z,21.37
2023-05-10T00:33:15.129Z,21.35
2023-05-10T00:33:46.444Z,21.33
2023-05-10T00:34:17.867Z,21.34
2023-05-10T00:34:49.217Z,21.31
2023-05-10T00:35:20.591Z,21.28
2023-05-10T00:35:51.942Z,21.27
2023-05-10T00:36:23.278Z,21.28
2023-05-10T00:36:54.613Z,21.29
2023-05-10T00:37:25.956Z,21.26
2023-05-10T00:37:57.306Z,21.29
2023-05-10T00:38:28.658Z,21.31
2023-05-10T00:39:00.065Z,21.30
2023-05-10T00:39:31.388Z,21.31
2023-05-10T00:40:02.717Z,21.27
2023-05-10T00:40:34.114Z,21.31
2023-05-10T00:41:05.488Z,21.31
2023-05-10T00:41:36.801Z,21.32
2023-05-10T00:42:08.144Z,21.30
2023-05-10T00:42:39.549Z,21.28
2023-05-10T00:43:10.852Z,21.28
2023-05-10T00:43:42.216Z,21.27
2023-05-10T00:44:13.532Z,21.26
2023-05-10T00:44:44.853Z,21.29
2023-05-10T00:45:16.166Z,21.28
2023-05-10T00:45:47.535Z,21.26
2023-05-10T00:46:18.922Z,21.26
2023-05-10T00:46:50.300Z,21.28
2023-05-10T00:47:21.813Z,21.30
2023-05-10T00:47:53.271Z,21.32
2023-05-10T00:48:24.629Z,21.30
2023-05-10T00:48:56.039Z,21.27
2023-05-10T00:49:27.431Z,21.26
2023-05-10T00:49:58.772Z,21.25
2023-05-10T00:50:30.504Z,21.26
2023-05-10T00:51:02.114Z,21.25
2023-05-10T00:51:33.416Z,21.28
2023-05-10T00:52:04.807Z,21.26
2023-05-10T00:52:36.140Z,21.27
2023-05-10T00:53:07.545Z,21.27
2023-05-10T00:53:38.935Z,21.28
2023-05-10T00:54:11.933Z,21.31
2023-05-10T00:54:43.362Z,21.30
2023-05-10T00:55:14.734Z,21.29
2023-05-10T00:55:46.065Z,21.27
2023-05-10T00:56:17.372Z,21.26
2023-05-10T00:56:48.749Z,21.25
2023-05-10T00:57:20.362Z,21.24
2023-05-10T00:57:51.720Z,21.26
2023-05-10T00:58:23.013Z,21.28
2023-05-10T00:58:54.377Z,21.31
2023-05-10T00:59:25.766Z,21.28
2023-05-10T00:59:57.253Z,21.31
2023-05-10T01:00:28.651Z,21.30
2023-05-10T01:01:00.044Z,21.28
2023-05-10T01:01:31.526Z,21.28
2023-05-10T01:02:03.094Z,21.24
2023-05-10T01:02:35.034Z,21.26
2023-05-10T01:03:06.617Z,21.26
2023-05-10T01:03:38.158Z,21.24
2023-05-10T01:04:09.866Z,21.23
2023-05-10T01:04:41.230Z,21.22
2023-05-10T01:05:12.623Z,21.22
2023-05-10T01:05:44.004Z,21.23
2023-05-10T01:06:15.373Z,21.20
2023-05-10T01:06:46.742Z,21.26
2023-05-10T01:07:18.117Z,21.29
2023-05-10T01:07:49.480Z,21.27
2023-05-10T01:08:20.812Z,21.26
2023-05-10T01:08:52.160Z,21.29
2023-05-10T01:09:23.485Z,21.28
2023-05-10T01:09:54.822Z,21.25
2023-05-10T01:10:26.232Z,21.25
2023-05-10T01:10:57.566Z,21.25
2023-05-10T01:11:28.896Z,21.28
2023-05-10T01:12:00.254Z,21.28
2023-05-10T01:12:31.763Z,21.30
2023-05-10T01:13:03.194Z,21.26
2023-05-10T01:13:35.852Z,21.27
2023-05-10T01:14:07.223Z,21.24
2023-05-10T01:14:38.558Z,21.21
2023-05-10T01:15:09.956Z,21.27
2023-05-10T01:15:41.394Z,21.28
2023-05-10T01:16:12.787Z,21.26
2023-05-10T01:16:44.200Z,21.22
2023-05-10T01:17:15.474Z,21.23
2023-05-10T01:17:46.963Z,21.22
2023-05-10T01:18:18.427Z,21.22
2023-05-10T01:18:49.741Z,21.23
2023-05-10T01:19:24.825Z,21.29
2023-05-10T01:19:56.176Z,21.28
2023-05-10T01:20:27.934Z,21.24
2023-05-10T01:21:03.014Z,21.21
2023-05-10T01:21:37.994Z,21.20
2023-05-10T01:22:27.833Z,21.23
2023-05-10T01:23:11.852Z,21.22
2023-05-10T01:24:01.689Z,21.19
2023-05-10T01:24:51.494Z,21.26
2023-05-10T01:25:25.854Z,21.25
2023-05-10T01:26:23.325Z,21.21
2023-05-10T01:27:00.599Z,21.24
2023-05-10T01:27:39.481Z,21.25
2023-05-10T01:28:19.805Z,21.24
2023-05-10T01:28:59.906Z,21.23
2023-05-10T01:30:09.137Z,21.21
2023-05-10T01:30:45.273Z,21.21
2023-05-10T01:31:23.525Z,21.18
2023-05-10T01:32:21.219Z,21.20
2023-05-10T01:32:55.337Z,21.25
2023-05-10T01:33:32.433Z,21.23
2023-05-10T01:34:06.758Z,21.23
2023-05-10T01:35:04.339Z,21.21
2023-05-10T01:35:38.627Z,21.19
2023-05-10T01:36:14.215Z,21.18
2023-05-10T01:37:05.300Z,21.21
2023-05-10T01:37:43.647Z,21.22
2023-05-10T01:38:18.589Z,21.22
2023-05-10T01:38:54.221Z,21.25
2023-05-10T01:39:26.048Z,21.21
2023-05-10T01:40:06.445Z,21.21
2023-05-10T01:40:52.374Z,21.17
2023-05-10T01:41:38.947Z,21.18
2023-05-10T01:42:15.381Z,21.19
2023-05-10T01:42:48.710Z,21.16
2023-05-10T01:43:23.700Z,21.15
2023-05-10T01:43:55.032Z,21.18
2023-05-10T01:44:35.168Z,21.16
2023-05-10T01:45:06.733Z,21.17
2023-05-10T01:45:38.678Z,21.17
2023-05-10T01:46:15.743Z,21.18
2023-05-10T01:46:49.683Z,21.17
2023-05-10T01:47:23.311Z,21.15
2023-05-10T01:47:55.516Z,21.13
2023-05-10T01:48:26.880Z,21.14
2023-05-10T01:48:58.432Z,21.17
2023-05-10T01:49:31.695Z,21.20
2023-05-10T01:50:04.327Z,21.18
2023-05-10T01:50:36.564Z,21.20
2023-05-10T01:51:07.935Z,21.26
2023-05-10T01:51:46.050Z,21.29
2023-05-10T01:52:19.428Z,21.25
2023-05-10T01:52:54.567Z,21.20
2023-05-10T01:53:25.883Z,21.18
2023-05-10T01:54:01.996Z,21.18
2023-05-10T01:54:33.582Z,21.18
2023-05-10T01:55:09.130Z,21.15
2023-05-10T01:56:00.889Z,21.18
2023-05-10T01:56:33.112Z,21.15
2023-05-10T01:57:04.748Z,21.16
2023-05-10T01:57:36.486Z,21.16
2023-05-10T01:58:09.824Z,21.18
2023-05-10T01:58:41.148Z,21.16
2023-05-10T01:59:13.597Z,21.14
2023-05-10T01:59:44.982Z,21.12
2023-05-10T02:00:16.591Z,21.15
2023-05-10T02:00:48.209Z,21.17
2023-05-10T02:01:20.220Z,21.14
2023-05-10T02:01:51.628Z,21.17
2023-05-10T02:02:22.968Z,21.16
2023-05-10T02:02:54.356Z,21.17
2023-05-10T02:03:25.824Z,21.18
2023-05-10T02:03:57.232Z,21.16
2023-05-10T02:04:28.589Z,21.18
2023-05-10T02:04:59.979Z,21.20
2023-05-10T02:05:31.281Z,21.16
2023-05-10T02:06:02.657Z,21.16
2023-05-10T02:06:34.050Z,21.16
2023-05-10T02:07:05.613Z,21.22
2023-05-10T02:07:37.168Z,21.24
2023-05-10T02:08:08.527Z,21.21
2023-05-10T02:08:39.883Z,21.18
2023-05-10T02:09:11.252Z,21.20
2023-05-10T02:09:43.155Z,21.21
2023-05-10T02:10:14.719Z,21.18
2023-05-10T02:10:46.337Z,21.19
2023-05-10T02:11:17.693Z,21.20
2023-05-10T02:11:49.194Z,21.17
2023-05-10T02:12:20.565Z,21.19
2023-05-10T02:12:51.912Z,21.17
2023-05-10T02:13:24.362Z,21.14
2023-05-10T02:13:55.812Z,21.15
2023-05-10T02:14:27.199Z,21.17
2023-05-10T02:14:58.560Z,21.15
2023-05-10T02:15:29.910Z,21.14
2023-05-10T02:16:01.237Z,21.14
2023-05-10T02:16:32.710Z,21.15
2023-05-10T02:17:05.248Z,21.14
2023-05-10T02:17:36.969Z,21.14
2023-05-10T02:18:08.390Z,21.16
2023-05-10T02:18:39.855Z,21.17
2023-05-10T02:19:11.201Z,21.16
2023-05-10T02:19:42.647Z,21.17
2023-05-10T02:20:14.251Z,21.24
2023-05-10T02:20:46.483Z,21.25
2023-05-10T02:21:17.815Z,21.22
2023-05-10T02:21:49.124Z,21.18
2023-05-10T02:22:20.527Z,21.22
2023-05-10T02:22:52.529Z,21.18
2023-05-10T02:23:23.868Z,21.16
2023-05-10T02:23:55.181Z,21.18
2023-05-10T02:24:26.493Z,21.18
2023-05-10T02:24:58.544Z,21.20
2023-05-10T02:25:29.872Z,21.19
2023-05-10T02:26:01.302Z,21.17
2023-05-10T02:26:32.791Z,21.18
2023-05-10T02:27:04.383Z,21.17
2023-05-10T02:27:35.746Z,21.21
2023-05-10T02:28:07.458Z,21.24
2023-05-10T02:28:38.792Z,21.20
2023-05-10T02:29:10.623Z,21.20
2023-05-10T02:29:41.963Z,21.23
2023-05-10T02:30:13.437Z,21.19
2023-05-10T02:30:44.895Z,21.19
2023-05-10T02:31:16.218Z,21.23
2023-05-10T02:31:47.601Z,21.19
2023-05-10T02:32:19.008Z,21.20
2023-05-10T02:32:50.732Z,21.23
2023-05-10T02:33:22.099Z,21.23
2023-05-10T02:33:53.868Z,21.21
2023-05-10T02:34:26.333Z,21.18
2023-05-10T02:34:57.725Z,21.17
2023-05-10T02:35:29.138Z,21.14
2023-05-10T02:36:00.468Z,21.18
2023-05-10T02:36:31.829Z,21.14
2023-05-10T02:37:03.205Z,21.18
2023-05-10T02:37:34.617Z,21.23
2023-05-10T02:38:05.967Z,21.24
2023-05-10T02:38:37.318Z,21.20
2023-05-10T02:39:08.829Z,21.24
2023-05-10T02:39:40.301Z,21.18
2023-05-10T02:40:11.845Z,21.16
2023-05-10T02:40:43.301Z,21.14
2023-05-10T02:41:14.675Z,21.17
2023-05-10T02:41:46.005Z,21.19
2023-05-10T02:42:17.986Z,21.20
2023-05-10T02:42:49.341Z,21.18
2023-05-10T02:43:20.779Z,21.14
2023-05-10T02:43:52.124Z,21.13
2023-05-10T02:44:23.462Z,21.14
2023-05-10T02:45:00.361Z,21.13
2023-05-10T02:45:32.144Z,21.13
2023-05-10T02:46:03.638Z,21.18
2023-05-10T02:46:35.041Z,21.18
2023-05-10T02:47:06.500Z,21.19
2023-05-10T02:47:37.956Z,21.15
2023-05-10T02:48:09.437Z,21.14
2023-05-10T02:48:40.864Z,21.15
2023-05-10T02:49:12.203Z,21.16
2023-05-10T02:49:43.569Z,21.17
2023-05-10T02:50:15.071Z,21.17
2023-05-10T02:50:46.877Z,21.13
2023-05-10T02:51:18.235Z,21.17
2023-05-10T02:51:50.360Z,21.18
2023-05-10T02:52:26.008Z,21.21
2023-05-10T02:53:00.488Z,21.25
2023-05-10T02:53:32.332Z,21.23
2023-05-10T02:54:13.752Z,21.21
2023-05-10T02:54:45.339Z,21.20
2023-05-10T02:55:17.028Z,21.19
2023-05-10T02:55:50.263Z,21.17
2023-05-10T02:56:24.623Z,21.15
2023-05-10T02:56:57.390Z,21.15
2023-05-10T02:57:29.739Z,21.14
2023-05-10T02:58:01.584Z,21.13
2023-05-10T02:58:32.969Z,21.13
2023-05-10T02:59:04.350Z,21.19
2023-05-10T02:59:35.670Z,21.17
2023-05-10T03:00:07.584Z,21.15
2023-05-10T03:00:38.889Z,21.12
2023-05-10T03:01:10.351Z,21.11
2023-05-10T03:01:41.857Z,21.14
2023-05-10T03:02:13.423Z,21.12
2023-05-10T03:02:44.847Z,21.16
2023-05-10T03:03:16.162Z,21.15
2023-05-10T03:03:47.509Z,21.19
2023-05-10T03:04:18.882Z,21.15
2023-05-10T03:04:50.278Z,21.11
2023-05-10T03:05:21.713Z,21.12
2023-05-10T03:05:53.093Z,21.11
2023-05-10T03:06:24.474Z,21.10
2023-05-10T03:06:55.844Z,21.11
2023-05-10T03:07:27.192Z,21.11
2023-05-10T03:07:58.591Z,21.13
2023-05-10T03:08:29.924Z,21.19
2023-05-10T03:09:01.296Z,21.16
2023-05-10T03:09:32.762Z,21.15
2023-05-10T03:10:04.280Z,21.16
2023-05-10T03:10:38.632Z,21.13
2023-05-10T03:11:21.662Z,21.12
2023-05-10T03:11:57.766Z,21.15
2023-05-10T03:12:47.719Z,21.12
2023-05-10T03:13:24.722Z,21.11
2023-05-10T03:14:11.229Z,21.09
2023-05-10T03:15:01.045Z,21.10
2023-05-10T03:15:52.712Z,21.13
2023-05-10T03:16:28.371Z,21.12
2023-05-10T03:17:20.097Z,21.10
2023-05-10T03:17:51.411Z,21.11
2023-05-10T03:18:23.478Z,21.09
2023-05-10T03:18:59.761Z,21.06
2023-05-10T03:19:37.828Z,21.05
2023-05-10T03:20:12.130Z,21.10
2023-05-10T03:20:43.832Z,21.11
2023-05-10T03:21:15.188Z,21.13
2023-05-10T03:21:48.415Z,21.14
2023-05-10T03:22:22.586Z,21.12
2023-05-10T03:22:59.315Z,21.09
2023-05-10T03:23:30.687Z,21.11
2023-05-10T03:24:08.056Z,21.16
2023-05-10T03:24:40.253Z,21.16
2023-05-10T03:25:11.834Z,21.13
2023-05-10T03:25:43.187Z,21.11
2023-05-10T03:26:16.792Z,21.12
2023-05-10T03:26:48.111Z,21.17
2023-05-10T03:27:19.497Z,21.13
2023-05-10T03:27:50.831Z,21.10
2023-05-10T03:28:22.214Z,21.09
2023-05-10T03:28:53.556Z,21.11
2023-05-10T03:29:25.146Z,21.13
2023-05-10T03:29:56.466Z,21.11
2023-05-10T03:30:27.859Z,21.09
2023-05-10T03:30:59.306Z,21.10
2023-05-10T03:31:30.703Z,21.10
2023-05-10T03:32:02.024Z,21.15
2023-05-10T03:32:33.401Z,21.10
2023-05-10T03:33:07.878Z,21.08
2023-05-10T03:33:46.724Z,21.06
2023-05-10T03:34:18.072Z,21.08
2023-05-10T03:34:49.453Z,21.07
2023-05-10T03:35:20.794Z,21.11
2023-05-10T03:35:52.100Z,21.11
2023-05-10T03:36:23.457Z,21.10
2023-05-10T03:36:54.812Z,21.09
2023-05-10T03:37:26.137Z,21.05
2023-05-10T03:37:57.544Z,21.05
2023-05-10T03:38:30.510Z,21.05
2023-05-10T03:39:02.068Z,21.03
2023-05-10T03:39:33.415Z,21.02
2023-05-10T03:40:05.003Z,21.03
2023-05-10T03:40:36.372Z,21.03
2023-05-10T03:41:07.726Z,21.06
2023-05-10T03:41:39.043Z,21.05
2023-05-10T03:42:10.462Z,21.05
2023-05-10T03:42:41.804Z,21.05
2023-05-10T03:43:13.150Z,21.03
2023-05-10T03:43:44.446Z,21.03
2023-05-10T03:44:15.805Z,21.00
2023-05-10T03:44:47.106Z,21.02
2023-05-10T03:45:18.520Z,21.02
2023-05-10T03:45:49.913Z,21.04
2023-05-10T03:46:21.247Z,21.07
2023-05-10T03:46:52.642Z,21.03
2023-05-10T03:47:24.128Z,21.01
2023-05-10T03:47:55.631Z,21.01
2023-05-10T03:48:27.099Z,21.05
2023-05-10T03:48:58.437Z,21.05
2023-05-10T03:49:29.800Z,21.05
2023-05-10T03:50:01.130Z,21.07
2023-05-10T03:50:32.498Z,21.07
2023-05-10T03:51:03.992Z,21.08
2023-05-10T03:51:35.366Z,21.02
2023-05-10T03:52:06.654Z,21.03
2023-05-10T03:52:38.051Z,21.07
2023-05-10T03:53:09.382Z,21.05
2023-05-10T03:53:40.724Z,21.07
2023-05-10T03:54:12.039Z,21.03
2023-05-10T03:54:43.361Z,21.03
2023-05-10T03:55:14.719Z,21.00
2023-05-10T03:55:46.083Z,21.01
2023-05-10T03:56:17.465Z,21.00
2023-05-10T03:56:48.875Z,21.01
2023-05-10T03:57:20.362Z,21.00
2023-05-10T03:57:51.710Z,21.01
2023-05-10T03:58:23.051Z,21.01
2023-05-10T03:58:54.392Z,21.01
2023-05-10T03:59:25.744Z,21.01
2023-05-10T03:59:57.046Z,21.02
2023-05-10T04:00:28.438Z,20.99
2023-05-10T04:00:59.785Z,21.02
2023-05-10T04:01:31.100Z,21.01
2023-05-10T04:02:02.606Z,21.05
2023-05-10T04:02:34.078Z,21.03
2023-05-10T04:03:05.733Z,21.02
2023-05-10T04:03:37.249Z,21.03
2023-05-10T04:04:08.877Z,21.00
2023-05-10T04:04:40.292Z,21.08
2023-05-10T04:05:11.684Z,21.05
2023-05-10T04:05:43.041Z,21.03
2023-05-10T04:06:14.463Z,21.00
2023-05-10T04:06:45.901Z,21.00
2023-05-10T04:07:17.291Z,20.99
2023-05-10T04:07:48.677Z,21.00
2023-05-10T04:08:20.029Z,21.05
2023-05-10T04:08:51.300Z,21.05
2023-05-10T04:09:22.698Z,21.06
2023-05-10T04:09:54.083Z,21.03
2023-05-10T04:10:25.453Z,21.04
2023-05-10T04:11:05.942Z,21.09
2023-05-10T04:11:37.275Z,21.07
2023-05-10T04:12:10.722Z,21.07
2023-05-10T04:12:42.560Z,21.06
2023-05-10T04:13:13.899Z,21.01
2023-05-10T04:13:45.553Z,20.99
2023-05-10T04:14:16.874Z,21.02
2023-05-10T04:14:48.248Z,21.02
2023-05-10T04:15:19.598Z,21.02
2023-05-10T04:15:50.958Z,21.00
2023-05-10T04:16:22.341Z,21.01
2023-05-10T04:16:53.710Z,21.01
2023-05-10T04:17:25.124Z,21.00
2023-05-10T04:17:56.579Z,21.01
2023-05-10T04:18:27.933Z,21.00
2023-05-10T04:18:59.281Z,21.01
2023-05-10T04:19:33.558Z,20.99
2023-05-10T04:20:05.083Z,21.00
2023-05-10T04:20:36.411Z,21.00
2023-05-10T04:21:13.836Z,21.02
2023-05-10T04:21:45.183Z,21.03
2023-05-10T04:22:16.583Z,21.01
2023-05-10T04:22:47.975Z,21.07
2023-05-10T04:23:19.369Z,21.02
2023-05-10T04:23:50.718Z,21.01
2023-05-10T04:24:22.118Z,20.99
2023-05-10T04:24:53.538Z,20.98
2023-05-10T04:25:24.928Z,20.98
2023-05-10T04:26:02.613Z,20.98
2023-05-10T04:26:34.145Z,21.02
2023-05-10T04:27:05.498Z,21.00
2023-05-10T04:27:36.869Z,20.97
2023-05-10T04:28:08.199Z,20.98
2023-05-10T04:28:39.641Z,20.98
2023-05-10T04:29:11.005Z,20.97
2023-05-10T04:29:42.355Z,20.98
2023-05-10T04:30:13.781Z,20.97
2023-05-10T04:30:45.120Z,21.05
2023-05-10T04:31:16.631Z,21.02
2023-05-10T04:31:48.125Z,21.02
2023-05-10T04:32:19.483Z,20.99
2023-05-10T04:32:50.851Z,20.99
2023-05-10T04:33:22.270Z,20.98
2023-05-10T04:33:53.653Z,20.99
2023-05-10T04:34:25.023Z,20.98
2023-05-10T04:34:56.354Z,20.99
2023-05-10T04:35:27.691Z,21.02
2023-05-10T04:35:59.072Z,20.98
2023-05-10T04:36:30.487Z,20.98
2023-05-10T04:37:01.836Z,20.98
2023-05-10T04:37:33.216Z,20.96
2023-05-10T04:38:04.617Z,20.96
2023-05-10T04:38:35.997Z,21.00
2023-05-10T04:39:07.346Z,21.02
2023-05-10T04:39:40.289Z,21.08
2023-05-10T04:40:13.535Z,21.10
2023-05-10T04:40:44.854Z,21.07
2023-05-10T04:41:16.195Z,21.00
2023-05-10T04:41:47.612Z,21.00
2023-05-10T04:42:18.948Z,21.00
2023-05-10T04:42:50.236Z,20.96
2023-05-10T04:43:21.574Z,20.99
2023-05-10T04:43:52.889Z,20.96
2023-05-10T04:44:24.321Z,20.96
2023-05-10T04:44:55.714Z,20.95
2023-05-10T04:45:27.097Z,20.99
2023-05-10T04:45:58.627Z,21.01
2023-05-10T04:46:30.023Z,21.04
2023-05-10T04:47:01.435Z,21.01
2023-05-10T04:47:32.781Z,21.00
2023-05-10T04:48:04.351Z,20.98
2023-05-10T04:48:35.788Z,20.96
2023-05-10T04:49:07.232Z,20.97
2023-05-10T04:49:38.783Z,20.96
2023-05-10T04:50:10.285Z,20.95
2023-05-10T04:50:41.851Z,20.97
2023-05-10T04:51:13.155Z,21.01
2023-05-10T04:51:44.490Z,21.01
2023-05-10T04:52:15.958Z,20.98
2023-05-10T04:52:47.384Z,20.95
2023-05-10T04:53:18.933Z,20.97
2023-05-10T04:53:57.816Z,20.99
2023-05-10T04:54:36.356Z,20.98
2023-05-10T04:55:07.916Z,20.98
2023-05-10T04:55:39.277Z,20.98
2023-05-10T04:56:10.738Z,20.99
2023-05-10T04:56:42.094Z,20.99
2023-05-10T04:57:13.616Z,20.98
2023-05-10T04:57:45.022Z,20.99
2023-05-10T04:58:16.335Z,20.96
2023-05-10T04:58:47.675Z,20.96
2023-05-10T04:59:19.259Z,20.96
2023-05-10T04:59:50.734Z,20.97
2023-05-10T05:00:22.072Z,20.96
2023-05-10T05:00:53.420Z,20.96
2023-05-10T05:01:24.913Z,20.96
2023-05-10T05:01:56.450Z,20.93
2023-05-10T05:02:27.890Z,20.97
2023-05-10T05:02:59.531Z,20.96
2023-05-10T05:03:31.061Z,20.94
2023-05-10T05:04:02.540Z,20.97
2023-05-10T05:04:36.661Z,20.95
2023-05-10T05:05:08.211Z,20.95
2023-05-10T05:05:39.560Z,20.96
2023-05-10T05:06:10.920Z,20.96
2023-05-10T05:06:42.502Z,20.96
2023-05-10T05:07:13.854Z,20.96
2023-05-10T05:07:45.200Z,20.99
2023-05-10T05:08:16.583Z,20.98
2023-05-10T05:08:47.990Z,20.98
2023-05-10T05:09:19.365Z,20.97
2023-05-10T05:09:50.703Z,21.01
2023-05-10T05:10:22.060Z,21.05
2023-05-10T05:10:53.414Z,21.02
2023-05-10T05:11:24.816Z,21.01
2023-05-10T05:11:56.169Z,21.02
2023-05-10T05:12:27.597Z,21.01
2023-05-10T05:12:59.184Z,21.02
2023-05-10T05:13:30.663Z,21.00
2023-05-10T05:14:02.177Z,20.98
2023-05-10T05:14:33.567Z,21.00
2023-05-10T05:15:06.001Z,21.00
2023-05-10T05:15:38.630Z,20.97
2023-05-10T05:16:10.158Z,20.97
2023-05-10T05:16:41.651Z,20.97
2023-05-10T05:17:13.009Z,20.95
2023-05-10T05:17:44.615Z,20.96
2023-05-10T05:18:15.979Z,21.00
2023-05-10T05:18:47.313Z,20.99
2023-05-10T05:19:18.697Z,21.00
2023-05-10T05:19:50.165Z,20.97
2023-05-10T05:20:21.499Z,20.98
2023-05-10T05:20:52.836Z,20.98
2023-05-10T05:21:24.217Z,20.96
2023-05-10T05:21:55.615Z,20.96
2023-05-10T05:22:27.080Z,20.97
2023-05-10T05:22:58.504Z,20.96
2023-05-10T05:23:29.900Z,20.97
2023-05-10T05:24:01.277Z,20.96
2023-05-10T05:24:35.769Z,20.97
2023-05-10T05:25:07.351Z,20.97
2023-05-10T05:25:38.701Z,20.98
2023-05-10T05:26:10.122Z,21.00
2023-05-10T05:26:41.532Z,21.00
2023-05-10T05:27:12.917Z,21.00
2023-05-10T05:27:44.268Z,20.98
2023-05-10T05:28:15.638Z,20.96
2023-05-10T05:28:46.973Z,20.96
2023-05-10T05:29:18.356Z,20.99
2023-05-10T05:29:49.682Z,20.98
2023-05-10T05:30:20.971Z,20.98
2023-05-10T05:30:52.371Z,20.97
2023-05-10T05:31:23.763Z,20.96
2023-05-10T05:31:55.702Z,20.97
2023-05-10T05:32:27.294Z,20.98
2023-05-10T05:32:58.735Z,20.97
2023-05-10T05:33:30.125Z,20.95
2023-05-10T05:34:01.640Z,20.95
2023-05-10T05:34:33.053Z,20.94
2023-05-10T05:35:04.646Z,20.95
2023-05-10T05:35:36.135Z,20.96
2023-05-10T05:36:07.560Z,20.96
2023-05-10T05:36:38.982Z,20.94
2023-05-10T05:37:13.457Z,20.95
2023-05-10T05:37:44.825Z,20.93
2023-05-10T05:38:16.249Z,20.93
2023-05-10T05:38:47.605Z,20.92
2023-05-10T05:39:18.965Z,20.93
2023-05-10T05:39:50.287Z,20.97
2023-05-10T05:40:21.653Z,20.95
2023-05-10T05:40:52.986Z,20.99
2023-05-10T05:41:24.374Z,21.00
2023-05-10T05:41:55.757Z,21.00
2023-05-10T05:42:27.166Z,20.98
2023-05-10T05:42:58.500Z,20.97
2023-05-10T05:43:29.843Z,20.95
2023-05-10T05:44:01.262Z,20.97
2023-05-10T05:44:32.676Z,20.96
2023-05-10T05:45:04.156Z,20.93
2023-05-10T05:45:35.512Z,20.97
2023-05-10T05:46:07.007Z,20.99
2023-05-10T05:46:38.453Z,20.99
2023-05-10T05:47:09.897Z,20.98
2023-05-10T05:47:41.496Z,20.96
2023-05-10T05:48:12.826Z,20.95
2023-05-10T05:48:44.135Z,20.97
2023-05-10T05:49:15.493Z,20.96
2023-05-10T05:49:46.954Z,20.97
2023-05-10T05:50:18.360Z,20.96
2023-05-10T05:50:49.694Z,20.96
2023-05-10T05:51:20.982Z,20.97
2023-05-10T05:51:52.431Z,20.95
2023-05-10T05:52:24.130Z,20.96
2023-05-10T05:52:55.469Z,20.95
2023-05-10T05:53:26.792Z,20.97
2023-05-10T05:53:58.118Z,20.94
2023-05-10T05:54:29.457Z,20.94
2023-05-10T05:55:00.832Z,20.94
2023-05-10T05:55:32.253Z,20.96
2023-05-10T05:56:03.716Z,20.93
2023-05-10T05:56:35.058Z,20.94
2023-05-10T05:57:06.398Z,21.00
2023-05-10T05:57:37.730Z,21.00
2023-05-10T05:58:09.406Z,20.99
2023-05-10T05:58:40.893Z,20.98
2023-05-10T05:59:12.251Z,20.99
2023-05-10T05:59:43.585Z,21.00
2023-05-10T06:00:15.003Z,20.99
2023-05-10T06:00:46.361Z,21.00
2023-05-10T06:01:17.708Z,20.97
2023-05-10T06:01:49.108Z,20.96
2023-05-10T06:02:20.437Z,20.96
2023-05-10T06:02:51.820Z,20.96
2023-05-10T06:03:23.322Z,20.95
2023-05-10T06:03:54.771Z,20.95
2023-05-10T06:04:26.330Z,20.99
2023-05-10T06:04:57.822Z,20.99
2023-05-10T06:05:29.166Z,20.97
2023-05-10T06:06:00.539Z,20.96
2023-05-10T06:06:31.942Z,20.96
2023-05-10T06:07:03.322Z,20.97
2023-05-10T06:07:34.726Z,20.96
2023-05-10T06:08:06.045Z,20.97
2023-05-10T06:08:37.376Z,20.98
2023-05-10T06:09:08.880Z,20.97
2023-05-10T06:09:40.260Z,20.99
2023-05-10T06:10:11.621Z,20.99
2023-05-10T06:10:43.092Z,20.98
2023-05-10T06:11:14.440Z,20.98
2023-05-10T06:11:45.790Z,20.97
2023-05-10T06:12:17.274Z,20.98
2023-05-10T06:12:48.703Z,20.99
2023-05-10T06:13:20.132Z,20.98
2023-05-10T06:13:51.479Z,20.98
2023-05-10T06:14:22.810Z,20.96
2023-05-10T06:14:54.142Z,20.98
2023-05-10T06:15:25.509Z,20.98
2023-05-10T06:15:56.945Z,20.96
2023-05-10T06:16:28.529Z,20.98
2023-05-10T06:17:00.002Z,20.98
2023-05-10T06:17:31.446Z,20.97
2023-05-10T06:18:02.866Z,20.99
2023-05-10T06:18:34.512Z,21.01
2023-05-10T06:19:06.055Z,21.01
2023-05-10T06:19:37.458Z,21.03
2023-05-10T06:20:09.215Z,21.03
2023-05-10T06:20:41.816Z,21.05
2023-05-10T06:21:13.246Z,21.02
2023-05-10T06:21:44.573Z,21.02
2023-05-10T06:22:15.983Z,21.02
2023-05-10T06:22:47.486Z,21.00
2023-05-10T06:23:18.887Z,21.01
2023-05-10T06:23:50.265Z,21.04
2023-05-10T06:24:21.629Z,21.02
2023-05-10T06:24:53.070Z,21.03
2023-05-10T06:25:24.546Z,21.03
2023-05-10T06:25:55.966Z,21.01
2023-05-10T06:26:27.379Z,21.01
2023-05-10T06:26:58.760Z,20.98
2023-05-10T06:27:30.176Z,21.00
2023-05-10T06:28:01.584Z,21.02
2023-05-10T06:28:32.970Z,21.00
2023-05-10T06:29:04.287Z,21.02
2023-05-10T06:29:35.681Z,20.99
2023-05-10T06:30:12.847Z,21.02
2023-05-10T06:30:44.885Z,20.98
2023-05-10T06:31:16.257Z,20.99
2023-05-10T06:31:47.714Z,21.01
2023-05-10T06:32:19.356Z,21.00
2023-05-10T06:32:50.721Z,21.02
2023-05-10T06:33:22.160Z,21.00
2023-05-10T06:33:55.383Z,21.00
2023-05-10T06:34:28.124Z,21.00
2023-05-10T06:34:59.494Z,21.01
2023-05-10T06:35:30.851Z,21.02
2023-05-10T06:36:02.206Z,21.01
2023-05-10T06:36:33.557Z,21.03
2023-05-10T06:37:04.963Z,21.02
2023-05-10T06:37:36.260Z,21.02
2023-05-10T06:38:07.602Z,20.99
2023-05-10T06:38:38.984Z,20.99
2023-05-10T06:39:10.367Z,20.99
2023-05-10T06:39:41.808Z,21.00
2023-05-10T06:40:13.213Z,21.02
2023-05-10T06:40:44.574Z,21.02
2023-05-10T06:41:15.899Z,21.02
2023-05-10T06:41:47.282Z,21.01
2023-05-10T06:42:18.713Z,21.02
2023-05-10T06:42:50.223Z,21.03
2023-05-10T06:43:21.557Z,21.05
2023-05-10T06:43:52.954Z,21.02
2023-05-10T06:44:24.370Z,21.00
2023-05-10T06:44:55.742Z,21.02
2023-05-10T06:45:27.041Z,21.05
2023-05-10T06:45:58.457Z,21.06
2023-05-10T06:46:29.845Z,21.07
2023-05-10T06:47:01.215Z,21.07
2023-05-10T06:47:32.628Z,21.03
2023-05-10T06:48:04.169Z,21.03
2023-05-10T06:48:35.555Z,21.05
2023-05-10T06:49:06.946Z,21.03
2023-05-10T06:49:38.280Z,21.05
2023-05-10T06:50:09.904Z,21.01
2023-05-10T06:50:41.327Z,21.08
2023-05-10T06:51:12.684Z,21.07
2023-05-10T06:51:44.082Z,21.08
2023-05-10T06:52:15.467Z,21.09
2023-05-10T06:52:46.841Z,21.07
2023-05-10T06:53:18.183Z,21.05
2023-05-10T06:53:49.729Z,21.07
2023-05-10T06:54:21.169Z,21.07
2023-05-10T06:54:52.754Z,21.06
2023-05-10T06:55:24.110Z,21.04
2023-05-10T06:55:55.438Z,21.02